Time;durP1;ratioP1;P1;durP2;ratioP2;P2;SDS_P1;SDS_P2;PMS_P1;PMS_P2;Temp;Humidity;BMP_temperature;BMP_pressure;BME280_temperature;BME280_humidity;BME280_pressure;Samples;Min_cycle;Max_cycle;Signal;HPM_P1;HPM_P2
2022/03/03 00:01:33;;;;;;;28.80;14.93;;;0.50;98.50;;;;;;4867720;29;20049;-80
2022/03/03 00:03:59;;;;;;;24.83;14.63;;;0.50;98.70;;;;;;4868352;29;20046;-80
2022/03/03 00:06:25;;;;;;;31.48;15.68;;;0.50;98.60;;;;;;4868029;29;20331;-79
2022/03/03 00:08:50;;;;;;;25.50;14.65;;;0.40;98.50;;;;;;4871783;29;20093;-79
2022/03/03 00:11:18;;;;;;;25.40;14.95;;;0.40;98.90;;;;;;4870330;29;20220;-79
2022/03/03 00:13:50;;;;;;;27.92;15.57;;;0.30;99.40;;;;;;4889547;29;20108;-79
2022/03/03 00:16:15;;;;;;;27.65;14.98;;;0.10;99.60;;;;;;4909312;29;20049;-81
2022/03/03 00:18:41;;;;;;;26.73;15.45;;;0.20;99.40;;;;;;4946705;29;20046;-79
2022/03/03 00:21:07;;;;;;;27.67;15.70;;;0.20;99.40;;;;;;4933361;29;20031;-78
2022/03/03 00:27:01;;;;;;;25.63;14.80;;;0.20;99.30;;;;;;4948372;29;20106;-80
2022/03/03 00:29:30;;;;;;;26.27;14.18;;;0.10;99.40;;;;;;4936252;29;20129;-80
2022/03/03 00:31:56;;;;;;;23.33;13.52;;;0.10;99.80;;;;;;4959721;28;20043;-79
2022/03/03 00:34:22;;;;;;;26.13;15.13;;;0.10;99.80;;;;;;4949519;29;20050;-79
2022/03/03 00:36:55;;;;;;;29.40;16.00;;;0.00;99.90;;;;;;4950256;29;20043;-80
2022/03/03 00:39:21;;;;;;;26.58;15.57;;;-0.10;99.90;;;;;;4950925;28;20258;-80
2022/03/03 00:41:47;;;;;;;31.75;16.23;;;0.00;99.90;;;;;;4967949;29;20031;-79
2022/03/03 00:44:13;;;;;;;27.85;15.05;;;0.00;99.90;;;;;;4967440;29;20055;-79
2022/03/03 00:46:39;;;;;;;28.15;15.88;;;0.00;99.90;;;;;;4966532;28;20325;-79
2022/03/03 00:49:05;;;;;;;29.02;15.73;;;-0.10;99.90;;;;;;4968179;29;20027;-80
2022/03/03 00:51:32;;;;;;;29.15;15.40;;;-0.10;99.90;;;;;;4951522;29;20043;-80
2022/03/03 00:53:58;;;;;;;31.42;16.60;;;-0.20;99.90;;;;;;4951790;29;20035;-79
2022/03/03 00:56:27;;;;;;;30.38;15.43;;;-0.20;99.90;;;;;;4949787;29;20078;-80
2022/03/03 00:58:55;;;;;;;30.08;16.42;;;-0.20;99.90;;;;;;4930379;29;20031;-80
2022/03/03 01:01:21;;;;;;;26.45;16.00;;;-0.10;99.90;;;;;;4935729;28;20040;-79
2022/03/03 01:03:52;;;;;;;26.85;16.05;;;0.00;99.90;;;;;;4931094;29;20027;-79
2022/03/03 01:06:50;;;;;;;31.45;16.35;;;-0.10;99.90;;;;;;4914679;29;20023;-81
2022/03/03 01:09:16;;;;;;;27.77;14.70;;;0.00;99.90;;;;;;4930591;29;20035;-80
2022/03/03 01:11:42;;;;;;;28.48;15.65;;;-0.10;99.90;;;;;;4914411;29;20031;-81
2022/03/03 01:14:07;;;;;;;29.25;15.80;;;-0.20;99.90;;;;;;4947571;29;20046;-81
2022/03/03 01:16:33;;;;;;;28.15;14.80;;;-0.10;99.90;;;;;;4946778;29;20039;-80
2022/03/03 01:19:02;;;;;;;25.85;15.40;;;-0.10;99.90;;;;;;4948270;29;20225;-79
2022/03/03 01:21:51;;;;;;;28.23;15.65;;;-0.10;99.90;;;;;;4951391;29;20039;-80
2022/03/03 01:24:17;;;;;;;28.00;14.73;;;-0.20;99.90;;;;;;4955677;29;20097;-80
2022/03/03 01:30:19;;;;;;;25.73;16.00;;;-0.30;99.90;;;;;;4947121;29;20035;-80
2022/03/03 01:32:46;;;;;;;28.40;17.08;;;-0.50;99.90;;;;;;4929774;29;20035;-80
2022/03/03 01:35:21;;;;;;;30.30;16.85;;;-0.60;99.90;;;;;;4959171;29;20053;-79
2022/03/03 01:37:48;;;;;;;30.65;17.40;;;-0.60;99.90;;;;;;4948246;29;20314;-80
2022/03/03 01:40:13;;;;;;;27.77;15.98;;;-0.70;99.90;;;;;;4949405;29;20019;-79
2022/03/03 01:42:39;;;;;;;31.70;16.63;;;-0.70;99.90;;;;;;4965544;29;20050;-81
2022/03/03 01:45:06;;;;;;;29.33;16.50;;;-0.70;99.90;;;;;;4964915;29;20023;-79
2022/03/03 01:47:32;;;;;;;31.15;17.88;;;-0.80;99.90;;;;;;4949298;29;20027;-80
2022/03/03 01:50:22;;;;;;;28.08;16.30;;;-0.70;99.90;;;;;;4965079;29;20031;-80
2022/03/03 01:53:23;;;;;;;30.58;16.67;;;-0.70;99.90;;;;;;4933435;29;20031;-79
2022/03/03 01:55:50;;;;;;;28.33;15.93;;;-0.70;99.90;;;;;;4948723;29;20047;-80
2022/03/03 01:58:17;;;;;;;28.60;16.35;;;-0.70;99.90;;;;;;4949026;29;20011;-79
2022/03/03 02:00:44;;;;;;;29.42;16.90;;;-0.60;99.90;;;;;;4952082;28;20049;-80
2022/03/03 02:03:44;;;;;;;31.90;17.00;;;-0.60;99.90;;;;;;4964499;28;20051;-79
2022/03/03 02:06:11;;;;;;;32.00;17.98;;;-0.60;99.90;;;;;;4961849;29;20078;-81
2022/03/03 02:09:02;;;;;;;30.52;15.73;;;-0.60;99.90;;;;;;4948270;29;20035;-81
2022/03/03 02:11:31;;;;;;;29.77;16.70;;;-0.70;99.90;;;;;;4949462;29;20031;-81
2022/03/03 02:13:57;;;;;;;;;;;-0.70;99.90;;;;;;4964693;29;20129;-79
2022/03/03 02:16:23;;;;;;;32.20;16.55;;;-0.60;99.90;;;;;;4980091;28;19910;-80
2022/03/03 02:18:57;;;;;;;30.58;16.17;;;-0.60;99.90;;;;;;4964791;28;20197;-79
2022/03/03 02:21:23;;;;;;;29.48;16.25;;;-0.70;99.90;;;;;;4963525;29;20030;-79
2022/03/03 02:23:52;;;;;;;27.83;16.17;;;-0.70;99.90;;;;;;4965300;29;20023;-78
2022/03/03 02:26:20;;;;;;;31.13;15.88;;;-0.60;99.90;;;;;;4964451;28;20034;-77
2022/03/03 02:28:48;;;;;;;36.28;16.20;;;-0.70;99.90;;;;;;4965185;28;20034;-78
2022/03/03 02:31:29;;;;;;;29.88;16.98;;;-0.60;99.90;;;;;;4963469;28;20038;-78
2022/03/03 02:34:21;;;;;;;31.58;15.50;;;-0.70;99.90;;;;;;4963749;29;20027;-79
2022/03/03 02:36:48;;;;;;;30.25;15.65;;;-0.70;99.90;;;;;;4963427;29;20155;-81
2022/03/03 02:39:13;;;;;;;25.85;15.00;;;-0.60;99.90;;;;;;4964048;28;20034;-80
2022/03/03 02:41:39;;;;;;;27.63;15.90;;;-0.60;99.90;;;;;;4979786;28;20313;-79
2022/03/03 02:44:05;;;;;;;28.67;16.88;;;-0.70;99.90;;;;;;4979971;28;20034;-81
2022/03/03 02:46:52;;;;;;;30.08;17.35;;;-0.70;99.90;;;;;;4978968;28;20214;-80
2022/03/03 02:49:18;;;;;;;28.65;16.42;;;-0.80;99.90;;;;;;4963401;29;20019;-81
2022/03/03 02:51:44;;;;;;;30.60;17.08;;;-0.80;99.90;;;;;;4963659;29;20503;-82
2022/03/03 02:54:10;;;;;;;29.42;17.30;;;-1.00;99.90;;;;;;4964498;29;20051;-81
2022/03/03 02:57:53;;;;;;;29.02;16.50;;;-1.20;99.90;;;;;;4964154;29;20027;-80
2022/03/03 02:59:25;;;;;;;29.63;17.23;;;-1.20;99.90;;;;;;4963248;28;20218;-80
2022/03/03 03:02:16;;;;;;;33.65;17.63;;;-1.20;99.90;;;;;;4949890;29;20046;-82
2022/03/03 03:04:51;;;;;;;36.08;18.77;;;-1.20;99.90;;;;;;4947027;29;20022;-81
2022/03/03 03:07:17;;;;;;;29.88;16.83;;;-1.20;99.90;;;;;;4965144;29;20031;-78
2022/03/03 03:09:42;;;;;;;30.27;17.90;;;-1.20;99.90;;;;;;4931288;29;20026;-79
2022/03/03 03:12:20;;;;;;;31.38;17.15;;;-1.10;99.90;;;;;;4965314;29;20050;-81
2022/03/03 03:14:46;;;;;;;31.45;17.50;;;-1.10;99.90;;;;;;4969271;29;20059;-79
2022/03/03 03:17:12;;;;;;;28.00;15.95;;;-1.10;99.90;;;;;;4948191;29;20035;-79
2022/03/03 03:19:38;;;;;;;26.50;14.48;;;-1.20;99.90;;;;;;4948270;29;20023;-79
2022/03/03 03:22:04;;;;;;;29.13;16.13;;;-1.10;99.90;;;;;;4948063;29;20098;-81
2022/03/03 03:24:32;;;;;;;24.40;14.00;;;-1.20;99.90;;;;;;4947638;29;20356;-81
2022/03/03 03:27:02;;;;;;;27.13;14.65;;;-1.00;99.90;;;;;;4965247;29;20031;-80
2022/03/03 03:29:28;;;;;;;30.00;15.98;;;-1.00;99.90;;;;;;4947331;29;20027;-80
2022/03/03 03:31:54;;;;;;;30.10;16.27;;;-1.10;99.90;;;;;;4930526;29;20070;-80
2022/03/03 03:34:19;;;;;;;30.15;15.75;;;-1.00;99.90;;;;;;4927989;29;20035;-82
2022/03/03 03:36:45;;;;;;;40.13;18.50;;;-1.10;99.90;;;;;;4927854;29;20051;-80
2022/03/03 03:39:11;;;;;;;34.38;18.92;;;-1.20;99.90;;;;;;4943402;29;20036;-81
2022/03/03 03:41:43;;;;;;;33.80;17.60;;;-1.20;99.90;;;;;;4928573;29;20047;-83
2022/03/03 03:44:13;;;;;;;32.28;17.92;;;-1.20;99.90;;;;;;4932629;29;20221;-80
2022/03/03 03:46:39;;;;;;;26.70;16.02;;;-1.20;99.90;;;;;;4931452;29;20102;-80
2022/03/03 03:49:05;;;;;;;31.25;17.40;;;-1.10;99.90;;;;;;4932135;29;20238;-81
2022/03/03 03:51:32;;;;;;;29.95;17.48;;;-1.30;99.90;;;;;;4931666;29;20034;-83
2022/03/03 03:53:58;;;;;;;31.88;16.92;;;-1.30;99.90;;;;;;4947456;29;20313;-81
2022/03/03 03:56:23;;;;;;;33.10;17.02;;;-1.30;99.90;;;;;;4950526;29;20027;-80
2022/03/03 03:58:50;;;;;;;35.05;17.70;;;-1.30;99.90;;;;;;4931438;29;20031;-80
2022/03/03 04:01:16;;;;;;;33.25;18.17;;;-1.20;99.90;;;;;;4942085;29;20051;-82
2022/03/03 04:07:49;;;;;;;28.63;16.50;;;-1.20;99.90;;;;;;4963743;29;20028;-80
2022/03/03 04:10:22;;;;;;;27.95;15.48;;;-1.40;99.90;;;;;;4930654;29;20027;-80
2022/03/03 04:12:48;;;;;;;30.42;17.67;;;-1.30;99.90;;;;;;4982327;28;20113;-81
2022/03/03 04:15:17;;;;;;;30.42;16.58;;;-1.40;99.90;;;;;;4966020;29;20310;-81
2022/03/03 04:18:04;;;;;;;29.42;15.63;;;-1.40;99.90;;;;;;4946531;29;20031;-81
2022/03/03 04:20:33;;;;;;;34.85;18.38;;;-1.20;99.90;;;;;;4930353;29;20050;-82
2022/03/03 04:23:03;;;;;;;28.38;16.23;;;-1.30;99.90;;;;;;4930209;29;20031;-81
2022/03/03 04:25:36;;;;;;;29.65;17.50;;;-1.30;99.90;;;;;;4930812;29;20036;-83
2022/03/03 04:28:09;;;;;;;28.88;17.27;;;-1.30;99.90;;;;;;4928674;29;20330;-82
2022/03/03 04:30:40;;;;;;;29.85;17.40;;;-1.40;99.90;;;;;;4912127;29;20326;-80
2022/03/03 04:33:07;;;;;;;30.77;16.83;;;-1.50;99.90;;;;;;4910981;29;20087;-82
2022/03/03 04:35:33;;;;;;;30.55;17.48;;;-1.40;99.90;;;;;;4926674;29;20028;-82
2022/03/03 04:37:59;;;;;;;29.10;17.60;;;-1.40;99.90;;;;;;4928099;29;20059;-81
2022/03/03 04:40:28;;;;;;;30.77;17.55;;;-1.40;99.90;;;;;;4927754;29;20232;-83
2022/03/03 04:46:53;;;;;;;28.95;16.98;;;-1.50;99.90;;;;;;4945673;29;20028;-82
2022/03/03 04:49:34;;;;;;;35.80;17.13;;;-1.60;99.90;;;;;;4958624;29;20046;-83
2022/03/03 04:52:13;;;;;;;32.60;16.95;;;-1.80;99.90;;;;;;4965489;28;20038;-81
2022/03/03 04:55:05;;;;;;;30.92;16.90;;;-1.70;99.90;;;;;;4964979;29;20162;-80
2022/03/03 04:58:14;;;;;;;30.80;17.40;;;-1.80;99.90;;;;;;4965874;28;20023;-82
2022/03/03 05:00:42;;;;;;;29.70;16.67;;;-1.80;99.90;;;;;;4955722;28;20329;-82
2022/03/03 05:03:09;;;;;;;32.17;17.52;;;-1.80;99.90;;;;;;4954367;28;20065;-80
2022/03/03 05:05:46;;;;;;;31.38;16.33;;;-1.70;99.90;;;;;;4956293;28;20022;-80
2022/03/03 05:08:12;;;;;;;30.23;16.95;;;-1.80;99.90;;;;;;4985399;28;20027;-82
2022/03/03 05:10:40;;;;;;;;;;;-1.80;99.90;;;;;;4953083;28;20065;-81
2022/03/03 05:13:09;;;;;;;34.85;17.63;;;-1.90;99.90;;;;;;4969037;28;19930;-81
2022/03/03 05:15:36;;;;;;;32.13;18.00;;;-1.90;99.90;;;;;;4952132;28;20069;-81
2022/03/03 05:18:02;;;;;;;31.55;17.75;;;-1.90;99.90;;;;;;4984102;28;20037;-81
2022/03/03 05:20:28;;;;;;;32.45;17.25;;;-1.90;99.90;;;;;;4953241;28;20090;-82
2022/03/03 05:32:53;;;;;;;33.00;16.77;;;-2.00;99.90;;;;;;4875414;29;20053;-80
2022/03/03 05:36:06;;;;;;;33.72;18.45;;;-1.80;99.90;;;;;;4868984;29;20061;-81
2022/03/03 05:38:35;;;;;;;30.42;17.42;;;-2.00;99.90;;;;;;4832479;29;20035;-81
2022/03/03 05:41:01;;;;;;;29.27;16.40;;;-2.00;99.90;;;;;;4817572;29;20225;-81
2022/03/03 05:43:43;;;;;;;31.85;17.15;;;-2.00;99.90;;;;;;4831804;29;20443;-81
2022/03/03 05:46:09;;;;;;;34.45;18.17;;;-1.90;99.90;;;;;;4831672;29;20030;-81
2022/03/03 05:48:48;;;;;;;34.80;17.83;;;-1.90;99.90;;;;;;4831658;29;20061;-83
2022/03/03 05:51:17;;;;;;;33.13;18.08;;;-1.90;99.90;;;;;;4831823;29;20101;-83
2022/03/03 05:53:43;;;;;;;30.77;16.63;;;-2.00;99.90;;;;;;4831509;29;20054;-82
2022/03/03 05:56:18;;;;;;;29.90;16.42;;;-2.00;99.90;;;;;;4831805;29;20038;-80
2022/03/03 05:58:58;;;;;;;30.38;16.77;;;-2.10;99.90;;;;;;4831370;29;20031;-81
2022/03/03 06:05:06;;;;;;;30.50;17.27;;;-2.00;99.90;;;;;;4904964;29;20055;-81
2022/03/03 06:08:16;;;;;;;30.52;16.23;;;-1.90;99.90;;;;;;4889578;29;20044;-82
2022/03/03 06:12:06;;;;;;;31.45;18.52;;;-2.00;99.90;;;;;;4887150;29;20033;-82
2022/03/03 06:18:48;;;;;;;35.90;18.77;;;-1.80;99.90;;;;;;4851677;29;20058;-80
2022/03/03 06:21:18;;;;;;;37.08;19.20;;;-1.50;99.90;;;;;;4857193;29;20100;-79
2022/03/03 06:23:44;;;;;;;34.00;18.48;;;-1.40;99.90;;;;;;4925632;29;20110;-80
2022/03/03 06:26:16;;;;;;;38.53;18.73;;;-1.20;99.90;;;;;;4945077;29;20027;-80
2022/03/03 06:28:42;;;;;;;32.63;18.25;;;-0.70;99.90;;;;;;4928084;29;20035;-79
2022/03/03 06:31:08;;;;;;;32.25;17.17;;;-0.40;99.90;;;;;;4943475;29;20063;-81
2022/03/03 06:33:38;;;;;;;37.05;18.88;;;-0.40;99.90;;;;;;4944132;29;20028;-79
2022/03/03 06:36:04;;;;;;;37.95;19.63;;;-0.40;99.90;;;;;;4952674;29;20301;-78
2022/03/03 06:38:30;;;;;;;32.78;18.17;;;-0.60;99.90;;;;;;4963819;29;20297;-81
2022/03/03 06:40:57;;;;;;;32.00;18.95;;;-0.70;99.90;;;;;;4963253;29;20046;-81
2022/03/03 06:43:24;;;;;;;29.67;17.83;;;-0.80;99.90;;;;;;4947080;29;20042;-80
2022/03/03 06:45:50;;;;;;;31.70;18.05;;;-0.90;99.90;;;;;;4962835;28;20224;-80
2022/03/03 06:48:31;;;;;;;31.35;17.85;;;-0.80;99.90;;;;;;4965837;29;20015;-83
2022/03/03 06:51:04;;;;;;;32.13;17.73;;;-0.70;99.90;;;;;;4947042;29;20027;-80
2022/03/03 06:56:54;;;;;;;31.63;17.08;;;-0.50;99.90;;;;;;4946699;29;20039;-78
2022/03/03 06:59:23;;;;;;;32.53;19.05;;;-0.50;99.90;;;;;;4947038;29;20070;-81
2022/03/03 07:04:42;;;;;;;30.70;18.50;;;-0.50;99.90;;;;;;4944426;29;20055;-80
2022/03/03 07:07:10;;;;;;;32.70;18.38;;;-0.30;99.90;;;;;;4959247;29;20034;-80
2022/03/03 07:09:36;;;;;;;23.63;14.18;;;-0.20;99.90;;;;;;4959420;29;20023;-81
2022/03/03 07:12:03;;;;;;;30.10;17.38;;;-0.10;99.90;;;;;;4927475;29;20231;-78
2022/03/03 07:14:29;;;;;;;33.10;17.80;;;0.00;99.90;;;;;;4959102;29;20039;-79
2022/03/03 07:21:05;;;;;;;30.80;16.60;;;0.50;99.90;;;;;;4948216;29;20031;-78
2022/03/03 07:23:42;;;;;;;33.30;18.02;;;0.70;98.90;;;;;;4949042;29;20034;-79
2022/03/03 07:26:16;;;;;;;34.38;19.15;;;0.80;98.40;;;;;;4963288;29;20039;-81
2022/03/03 07:28:48;;;;;;;35.13;19.27;;;0.90;98.00;;;;;;4931012;28;20031;-79
2022/03/03 07:31:49;;;;;;;40.50;19.88;;;0.80;97.70;;;;;;4940074;29;20054;-79
2022/03/03 07:34:17;;;;;;;33.53;18.77;;;0.90;97.80;;;;;;4938157;29;20302;-79
2022/03/03 07:37:18;;;;;;;36.50;19.40;;;1.00;97.50;;;;;;4944449;29;20031;-77
2022/03/03 07:39:45;;;;;;;30.73;17.17;;;1.30;97.10;;;;;;4945147;29;20027;-78
2022/03/03 07:42:17;;;;;;;37.37;18.30;;;1.50;96.90;;;;;;4951048;29;20023;-78
2022/03/03 07:44:45;;;;;;;30.00;16.02;;;1.70;96.20;;;;;;4950343;29;20031;-80
2022/03/03 07:50:51;;;;;;;31.00;17.00;;;1.90;95.30;;;;;;4950132;29;20322;-79
2022/03/03 07:56:37;;;;;;;36.38;19.58;;;2.10;94.40;;;;;;4884984;29;20055;-82
2022/03/03 07:59:33;;;;;;;32.95;17.90;;;2.20;94.20;;;;;;4864020;29;20041;-80
2022/03/03 08:02:24;;;;;;;29.63;18.25;;;2.30;94.10;;;;;;4859667;29;20259;-80
2022/03/03 08:05:38;;;;;;;37.95;19.73;;;2.40;93.90;;;;;;4872258;29;20037;-78
2022/03/03 08:08:10;;;;;;;33.95;18.05;;;2.60;93.60;;;;;;4871627;29;20293;-79
2022/03/03 08:10:56;;;;;;;33.63;18.70;;;2.80;93.20;;;;;;4863949;29;20320;-79
2022/03/03 08:20:17;;;;;;;29.80;16.50;;;3.10;92.60;;;;;;4875716;29;20040;-81
2022/03/03 08:22:47;;;;;;;31.60;17.73;;;3.20;92.20;;;;;;4857272;29;20104;-80
2022/03/03 08:25:22;;;;;;;37.65;19.70;;;3.30;92.10;;;;;;4889070;29;20056;-80
2022/03/03 08:27:53;;;;;;;34.47;18.35;;;3.40;91.80;;;;;;4872514;29;20208;-81
2022/03/03 08:30:21;;;;;;;35.08;18.55;;;3.50;91.80;;;;;;4869604;29;20417;-79
2022/03/03 08:33:26;;;;;;;33.42;19.25;;;3.70;91.60;;;;;;4880506;29;20160;-80
2022/03/03 08:36:27;;;;;;;31.83;17.67;;;3.80;91.30;;;;;;4949972;29;20218;-81
2022/03/03 08:39:03;;;;;;;31.30;18.13;;;3.90;91.00;;;;;;4932257;29;20041;-82
2022/03/03 08:41:35;;;;;;;30.08;17.55;;;3.90;90.80;;;;;;4960840;28;20046;-83
2022/03/03 08:44:07;;;;;;;29.30;17.40;;;4.00;91.00;;;;;;4941949;29;20137;-80
2022/03/03 08:46:37;;;;;;;33.40;17.38;;;4.10;90.50;;;;;;4945735;29;20043;-82
2022/03/03 08:49:07;;;;;;;30.92;18.17;;;4.10;90.40;;;;;;4932654;29;20093;-80
2022/03/03 08:51:36;;;;;;;28.67;16.15;;;4.20;90.10;;;;;;4947942;29;20038;-81
2022/03/03 08:54:05;;;;;;;30.65;17.02;;;4.30;90.40;;;;;;4964861;29;20027;-79
2022/03/03 08:57:09;;;;;;;31.85;18.50;;;4.30;90.40;;;;;;4948477;29;20076;-82
2022/03/03 08:59:34;;;;;;;32.97;18.38;;;4.40;89.70;;;;;;4949011;29;20034;-80
2022/03/03 09:02:01;;;;;;;32.50;17.98;;;4.60;89.70;;;;;;4947728;29;20106;-79
2022/03/03 09:04:27;;;;;;;33.35;18.08;;;4.80;89.10;;;;;;4949261;29;20054;-81
2022/03/03 09:06:53;;;;;;;33.85;18.38;;;4.80;88.60;;;;;;4949162;29;20046;-81
2022/03/03 09:09:18;;;;;;;33.13;18.85;;;4.80;88.10;;;;;;4949453;29;20027;-81
2022/03/03 09:12:04;;;;;;;34.75;19.35;;;5.00;88.00;;;;;;4966648;29;20090;-81
2022/03/03 09:14:33;;;;;;;37.10;19.35;;;5.00;87.20;;;;;;4951275;29;20042;-79
2022/03/03 09:16:58;;;;;;;33.80;19.20;;;5.10;87.30;;;;;;4948463;29;20035;-80
2022/03/03 09:19:30;;;;;;;38.15;20.40;;;5.10;87.00;;;;;;4950197;29;20054;-80
2022/03/03 09:21:56;;;;;;;34.67;20.13;;;5.20;86.90;;;;;;4950710;29;20067;-79
2022/03/03 09:24:23;;;;;;;34.75;20.13;;;5.30;86.70;;;;;;4913686;29;20036;-80
2022/03/03 09:26:58;;;;;;;35.88;19.63;;;5.40;86.10;;;;;;4926704;29;20075;-80
2022/03/03 09:29:34;;;;;;;34.83;18.92;;;5.40;85.20;;;;;;4897129;29;20100;-79
2022/03/03 09:32:09;;;;;;;36.40;19.80;;;5.50;85.70;;;;;;4909409;29;20092;-77
2022/03/03 09:34:35;;;;;;;35.25;20.17;;;5.60;85.30;;;;;;4908585;29;20223;-80
2022/03/03 09:37:01;;;;;;;31.63;18.10;;;5.70;84.50;;;;;;4931908;28;20040;-78
2022/03/03 09:39:27;;;;;;;31.80;19.10;;;5.60;85.00;;;;;;4945626;29;20032;-78
2022/03/03 09:48:58;;;;;;;29.17;17.55;;;5.90;83.70;;;;;;4964162;29;20206;-80
2022/03/03 09:51:24;;;;;;;29.40;17.27;;;6.00;82.90;;;;;;4964943;29;20015;-78
2022/03/03 09:53:51;;;;;;;27.98;18.00;;;6.10;83.90;;;;;;4964954;29;20087;-78
2022/03/03 09:56:20;;;;;;;27.20;17.98;;;6.10;82.90;;;;;;4965390;29;20050;-78
2022/03/03 09:58:48;;;;;;;29.60;17.58;;;6.30;82.60;;;;;;4964728;29;20023;-82
2022/03/03 10:01:17;;;;;;;28.58;17.88;;;6.40;81.90;;;;;;4943264;29;20039;-79
2022/03/03 10:03:48;;;;;;;27.85;17.02;;;6.50;82.00;;;;;;4928771;29;20035;-80
2022/03/03 10:06:38;;;;;;;24.67;17.05;;;6.60;81.30;;;;;;4943151;29;20086;-83
2022/03/03 10:09:06;;;;;;;31.90;17.00;;;6.70;80.20;;;;;;4945342;29;20242;-78
2022/03/03 10:11:31;;;;;;;29.75;18.33;;;6.70;80.40;;;;;;4928860;29;20051;-80
2022/03/03 10:13:59;;;;;;;31.52;18.08;;;6.80;80.20;;;;;;4959049;29;20030;-78
2022/03/03 10:16:49;;;;;;;28.42;17.23;;;6.90;79.90;;;;;;4945557;28;20051;-79
2022/03/03 10:22:06;;;;;;;29.42;17.08;;;7.10;78.20;;;;;;4906735;29;20108;-79
2022/03/03 10:24:32;;;;;;;27.15;16.35;;;7.20;78.10;;;;;;4890500;29;20051;-80
2022/03/03 10:27:06;;;;;;;28.10;16.90;;;7.40;77.70;;;;;;4905983;29;20053;-78
2022/03/03 10:29:33;;;;;;;29.25;16.75;;;7.50;76.70;;;;;;4890680;29;20204;-79
2022/03/03 10:32:02;;;;;;;27.80;16.25;;;7.40;76.00;;;;;;4890283;29;20108;-78
2022/03/03 10:34:46;;;;;;;26.52;16.42;;;7.50;76.30;;;;;;4890772;29;20227;-78
2022/03/03 10:37:16;;;;;;;25.63;16.10;;;7.60;76.30;;;;;;4885506;29;20039;-79
2022/03/03 10:39:55;;;;;;;25.65;16.13;;;7.80;75.60;;;;;;4889955;29;20233;-79
2022/03/03 10:42:23;;;;;;;25.08;16.33;;;7.90;74.60;;;;;;4892019;29;20086;-79
2022/03/03 10:44:51;;;;;;;26.95;15.65;;;8.00;73.90;;;;;;4905298;29;20040;-79
2022/03/03 10:47:24;;;;;;;26.17;16.67;;;8.20;74.20;;;;;;4905531;29;20065;-79
2022/03/03 10:50:29;;;;;;;26.65;16.77;;;8.40;74.00;;;;;;4905488;29;20076;-78
2022/03/03 10:53:09;;;;;;;24.98;15.40;;;8.70;73.40;;;;;;4905373;29;20040;-80
2022/03/03 10:56:30;;;;;;;27.60;16.25;;;8.90;71.90;;;;;;4890295;29;20060;-78
2022/03/03 10:58:58;;;;;;;23.75;15.70;;;9.10;71.30;;;;;;4914197;29;20031;-79
2022/03/03 11:01:29;;;;;;;25.05;14.85;;;9.60;70.30;;;;;;4927040;29;20055;-79
2022/03/03 11:03:56;;;;;;;23.60;14.23;;;10.00;69.20;;;;;;4928254;29;20103;-78
2022/03/03 11:06:29;;;;;;;24.73;15.88;;;10.70;66.30;;;;;;4945585;29;20035;-78
2022/03/03 11:08:57;;;;;;;24.67;15.27;;;11.50;65.20;;;;;;4928015;29;20199;-80
2022/03/03 11:11:24;;;;;;;23.65;15.50;;;12.50;63.90;;;;;;4928639;29;20034;-79
2022/03/03 11:13:51;;;;;;;23.55;15.25;;;12.60;61.80;;;;;;4927997;29;20032;-80
2022/03/03 11:16:18;;;;;;;23.25;14.02;;;13.60;61.40;;;;;;4942880;29;20044;-79
2022/03/03 11:18:46;;;;;;;24.05;15.43;;;14.90;60.20;;;;;;4928637;29;20031;-78
2022/03/03 11:21:14;;;;;;;26.10;16.20;;;15.80;57.50;;;;;;4929270;29;20040;-78
2022/03/03 11:23:45;;;;;;;25.05;15.13;;;15.90;56.00;;;;;;4934776;29;20023;-79
2022/03/03 11:26:26;;;;;;;21.25;15.00;;;16.70;55.60;;;;;;4952683;28;20031;-79
2022/03/03 11:29:00;;;;;;;24.48;16.63;;;16.80;54.10;;;;;;4929294;29;20043;-80
2022/03/03 11:31:30;;;;;;;23.10;16.25;;;17.80;53.20;;;;;;4945359;29;20062;-78
2022/03/03 11:37:52;;;;;;;19.13;14.50;;;19.20;52.90;;;;;;4946201;29;20043;-79
2022/03/03 11:40:18;;;;;;;20.70;15.65;;;20.30;49.60;;;;;;4930578;29;20038;-80
2022/03/03 11:42:52;;;;;;;21.25;15.23;;;19.90;48.90;;;;;;4912481;29;20187;-79
2022/03/03 11:45:33;;;;;;;19.83;15.05;;;20.30;48.80;;;;;;4923737;29;20039;-81
2022/03/03 11:48:14;;;;;;;18.08;15.05;;;20.90;47.30;;;;;;4907732;29;20039;-81
2022/03/03 11:51:24;;;;;;;17.85;14.77;;;22.00;47.50;;;;;;4909089;29;20331;-79
2022/03/03 11:54:08;;;;;;;19.33;14.77;;;22.50;46.50;;;;;;4924978;29;20024;-82
2022/03/03 11:57:04;;;;;;;19.67;15.25;;;21.70;46.80;;;;;;4925111;29;20048;-78
2022/03/03 11:59:58;;;;;;;17.48;14.73;;;21.30;46.70;;;;;;4908390;29;20032;-82
2022/03/03 12:02:32;;;;;;;18.10;15.10;;;22.10;47.30;;;;;;4918997;29;20059;-80
2022/03/03 12:05:29;;;;;;;18.58;15.20;;;22.50;45.20;;;;;;4895772;29;20062;-79
2022/03/03 12:08:34;;;;;;;19.52;15.85;;;23.20;44.90;;;;;;4911167;29;20366;-79
2022/03/03 12:11:16;;;;;;;18.02;15.02;;;23.60;44.40;;;;;;4911154;29;20111;-83
2022/03/03 12:13:51;;;;;;;22.88;14.82;;;23.40;43.60;;;;;;4928402;29;20030;-83
2022/03/03 12:16:33;;;;;;;17.27;14.25;;;25.10;44.30;;;;;;4915239;29;20044;-85
2022/03/03 12:19:11;;;;;;;17.92;15.32;;;25.80;43.40;;;;;;4911135;29;20037;-81
2022/03/03 12:25:51;;;;;;;19.08;15.57;;;24.70;43.00;;;;;;4927861;29;20087;-81
2022/03/03 12:28:41;;;;;;;18.38;15.13;;;24.90;42.70;;;;;;4927041;29;20198;-81
2022/03/03 12:31:53;;;;;;;17.13;14.20;;;25.40;42.60;;;;;;4926179;29;20040;-81
2022/03/03 12:34:27;;;;;;;19.38;14.63;;;26.00;42.20;;;;;;4927989;29;20218;-84
2022/03/03 12:36:54;;;;;;;20.13;15.40;;;25.30;44.50;;;;;;4917472;29;20215;-81
2022/03/03 12:39:52;;;;;;;20.70;16.42;;;26.10;41.70;;;;;;4926717;29;20040;-80
2022/03/03 12:42:20;;;;;;;;;;;26.40;41.60;;;;;;4905185;29;20081;-83
2022/03/03 12:45:08;;;;;;;20.13;17.15;;;26.40;41.60;;;;;;4888845;29;20003;-83
2022/03/03 12:47:42;;;;;;;19.77;17.30;;;26.60;41.70;;;;;;4884946;29;20045;-84
2022/03/03 12:50:11;;;;;;;20.85;17.48;;;26.60;41.40;;;;;;4901805;29;20052;-80
2022/03/03 12:52:41;;;;;;;20.63;17.27;;;25.90;41.20;;;;;;4874871;29;20048;-80
2022/03/03 12:55:26;;;;;;;19.02;16.27;;;25.80;41.60;;;;;;4891248;29;20135;-80
2022/03/03 12:57:55;;;;;;;19.77;17.02;;;26.10;41.80;;;;;;4871410;29;20059;-84
2022/03/03 13:00:23;;;;;;;19.45;16.60;;;25.80;42.20;;;;;;4869946;29;20162;-85
2022/03/03 13:03:03;;;;;;;21.27;17.90;;;26.20;42.80;;;;;;4869854;29;20109;-82
2022/03/03 13:05:34;;;;;;;21.85;18.08;;;26.80;41.60;;;;;;4886048;29;20037;-82
2022/03/03 13:08:01;;;;;;;21.73;18.88;;;26.60;40.90;;;;;;4885024;29;20041;-83
2022/03/03 13:10:28;;;;;;;19.40;17.30;;;26.70;41.60;;;;;;4870307;29;20037;-83
2022/03/03 13:12:56;;;;;;;19.77;17.67;;;26.40;41.60;;;;;;4854224;29;20045;-81
2022/03/03 13:15:37;;;;;;;20.05;17.27;;;26.50;42.10;;;;;;4905143;29;20032;-83
2022/03/03 13:18:05;;;;;;;21.35;17.75;;;27.00;42.90;;;;;;4893669;29;20036;-82
2022/03/03 13:20:40;;;;;;;23.63;20.03;;;27.30;41.80;;;;;;4927588;29;20035;-82
2022/03/03 13:23:12;;;;;;;21.08;18.10;;;27.70;41.50;;;;;;4909614;29;20035;-82
2022/03/03 13:25:39;;;;;;;23.88;18.90;;;28.00;41.20;;;;;;4910644;29;20024;-82
2022/03/03 13:28:06;;;;;;;22.70;19.00;;;27.30;41.00;;;;;;4909831;29;20019;-80
2022/03/03 13:30:32;;;;;;;25.20;18.52;;;27.00;41.20;;;;;;4910039;29;20059;-81
2022/03/03 13:32:58;;;;;;;21.48;18.55;;;27.50;40.80;;;;;;4910776;29;20028;-80
2022/03/03 13:35:26;;;;;;;22.83;19.13;;;27.40;40.80;;;;;;4911187;29;20045;-82
2022/03/03 13:37:53;;;;;;;23.63;19.17;;;27.70;40.80;;;;;;4913938;29;20083;-80
2022/03/03 13:40:25;;;;;;;26.77;19.42;;;27.70;40.60;;;;;;4929724;29;20311;-82
2022/03/03 13:42:59;;;;;;;26.50;18.55;;;27.40;40.20;;;;;;4929177;29;20318;-80
2022/03/03 13:45:39;;;;;;;26.23;19.02;;;27.00;40.80;;;;;;4929593;29;20066;-83
2022/03/03 13:48:13;;;;;;;21.88;18.15;;;27.60;40.60;;;;;;4929106;29;20354;-81
2022/03/03 13:50:41;;;;;;;22.67;18.77;;;28.10;40.40;;;;;;4929076;29;20171;-84
2022/03/03 13:53:24;;;;;;;21.25;18.20;;;28.40;41.10;;;;;;4944517;29;20055;-82
2022/03/03 13:56:08;;;;;;;22.08;17.85;;;28.30;42.00;;;;;;4928013;29;20042;-81
2022/03/03 13:58:35;;;;;;;22.95;16.85;;;28.50;39.50;;;;;;4929065;29;20082;-81
2022/03/03 14:01:03;;;;;;;19.70;16.77;;;28.40;39.90;;;;;;4927575;29;20044;-80
2022/03/03 14:03:42;;;;;;;20.35;17.23;;;28.60;40.00;;;;;;4928813;29;20039;-80
2022/03/03 14:06:09;;;;;;;19.20;17.05;;;28.00;40.90;;;;;;4928202;29;20036;-81
2022/03/03 14:08:42;;;;;;;19.17;16.70;;;28.40;39.80;;;;;;4929025;29;20034;-82
2022/03/03 14:11:11;;;;;;;19.88;17.40;;;28.00;41.20;;;;;;4944304;29;20090;-81
2022/03/03 14:13:56;;;;;;;18.85;16.77;;;28.00;40.10;;;;;;4928722;29;20103;-81
2022/03/03 14:16:26;;;;;;;22.13;17.83;;;27.70;40.10;;;;;;4927999;29;20047;-80